Terminal Aerodrome Forecast
Issued by NWS Sioux Falls, SD

Home | Current Version | Previous Version | Text Only | Print | Product List | Glossary On
Versions: 1 2 3 4 5 6 7 8 9 10 11 12 13 14 15 16
000
FTUS43 KFSD 191012 AAA
TAFHON
TAF AMD
KHON 191012Z 1910/2006 16013G20KT P6SM BKN013
     FM191700 22012KT P6SM BKN015
     FM191900 25011KT P6SM SCT025 BKN140
     FM200000 27008KT P6SM SCT120=

USA.gov is the U.S. government's official web portal to all federal, state and local government web resources and services.